Terminal Aerodrome Forecast
Issued by NWS

Home | Current Version | Previous Version | Text Only | Print | Product List | Glossary On
Versions: 1 2 3 4 5 6 7 8 9 10 11 12 13 14 15
000
FTUS42 KGSP 231726
TAFHKY
TAF
KHKY 231726Z 2318/2418 28005KT P6SM VCSH SCT050
      TEMPO 2318/2320 4SM -TSRA BKN040CB
     FM232100 33007KT P6SM BKN050
     FM240000 36003KT P6SM BKN060
     FM241400 03007KT P6SM SCT060=

USA.gov is the U.S. government's official web portal to all federal, state and local government web resources and services.